createdAt,value
2022-10-05T00:01:40.250Z,101150.53
2022-10-05T00:04:17.385Z,101141.66
2022-10-05T00:11:19.976Z,101147.97
2022-10-05T00:13:49.591Z,101147.19
2022-10-05T00:16:23.692Z,101145.31
2022-10-05T00:18:55.051Z,101150.13
2022-10-05T00:21:28.359Z,101150.59
2022-10-05T00:23:59.282Z,101152.03
2022-10-05T00:27:10.704Z,101146.00
2022-10-05T00:29:40.366Z,101138.06
2022-10-05T00:32:13.996Z,101135.25
2022-10-05T00:34:45.221Z,101140.03
2022-10-05T00:37:15.541Z,101144.97
2022-10-05T00:39:44.809Z,101140.75
2022-10-05T00:42:29.570Z,101148.28
2022-10-05T00:45:17.505Z,101143.63
2022-10-05T00:48:14.618Z,101142.28
2022-10-05T00:50:46.596Z,101145.25
2022-10-05T00:53:48.871Z,101152.06
2022-10-05T00:56:44.887Z,101143.75
2022-10-05T00:59:26.069Z,101152.91
2022-10-05T01:02:37.079Z,101149.22
2022-10-05T01:05:17.203Z,101147.59
2022-10-05T01:08:01.619Z,101150.50
2022-10-05T01:10:47.396Z,101153.50
2022-10-05T01:13:51.085Z,101153.66
2022-10-05T01:16:28.763Z,101162.38
2022-10-05T01:19:16.580Z,101165.78
2022-10-05T01:22:14.915Z,101166.41
2022-10-05T01:25:01.741Z,101169.91
2022-10-05T01:27:56.402Z,101167.47
2022-10-05T01:30:52.756Z,101173.88
2022-10-05T01:33:43.237Z,101173.94
2022-10-05T01:36:53.037Z,101171.53
2022-10-05T01:39:52.189Z,101176.22
2022-10-05T01:42:39.725Z,101188.25
2022-10-05T01:45:29.134Z,101184.25
2022-10-05T01:48:19.139Z,101186.06
2022-10-05T01:51:21.898Z,101198.41
2022-10-05T01:54:33.513Z,101197.91
2022-10-05T01:57:22.168Z,101181.22
2022-10-05T02:00:10.855Z,101185.47
2022-10-05T02:03:05.543Z,101174.72
2022-10-05T02:06:01.159Z,101184.63
2022-10-05T02:08:44.581Z,101194.41
2022-10-05T02:11:16.257Z,101197.06
2022-10-05T02:13:59.499Z,101188.41
2022-10-05T02:16:42.664Z,101181.31
2022-10-05T02:19:26.603Z,101189.03
2022-10-05T02:22:14.028Z,101188.72
2022-10-05T02:24:53.368Z,101198.72
2022-10-05T02:27:48.349Z,101196.25
2022-10-05T02:30:20.030Z,101210.44
2022-10-05T02:33:12.481Z,101213.69
2022-10-05T02:35:42.064Z,101211.38
2022-10-05T02:38:23.715Z,101204.28
2022-10-05T02:41:07.191Z,101213.69
2022-10-05T02:44:02.146Z,101213.38
2022-10-05T02:46:42.177Z,101215.81
2022-10-05T02:49:22.286Z,101226.41
2022-10-05T02:52:10.824Z,101213.59
2022-10-05T02:54:43.380Z,101210.78
2022-10-05T02:57:27.909Z,101214.06
2022-10-05T03:00:11.125Z,101208.97
2022-10-05T03:02:49.232Z,101212.22
2022-10-05T03:05:32.908Z,101216.28
2022-10-05T03:08:10.838Z,101214.16
2022-10-05T03:11:07.618Z,101210.69
2022-10-05T03:14:01.653Z,101214.56
2022-10-05T03:16:42.974Z,101206.94
2022-10-05T03:19:49.130Z,101211.97
2022-10-05T03:22:47.406Z,101215.59
2022-10-05T03:25:58.348Z,101221.19
2022-10-05T03:28:52.187Z,101219.97
2022-10-05T03:31:40.089Z,101218.78
2022-10-05T03:34:23.393Z,101218.78
2022-10-05T03:37:03.658Z,101226.84
2022-10-05T03:40:27.216Z,101220.88
2022-10-05T03:43:25.317Z,101215.28
2022-10-05T03:46:17.679Z,101223.38
2022-10-05T03:49:24.220Z,101220.13
2022-10-05T03:52:07.260Z,101218.69
2022-10-05T03:54:40.839Z,101219.50
2022-10-05T03:57:31.019Z,101223.03
2022-10-05T04:00:52.834Z,101228.25
2022-10-05T04:03:40.460Z,101233.84
2022-10-05T04:06:32.066Z,101230.72
2022-10-05T04:09:13.271Z,101238.38
2022-10-05T04:11:54.575Z,101236.38
2022-10-05T04:14:30.058Z,101242.03
2022-10-05T04:17:13.152Z,101245.69
2022-10-05T04:19:55.951Z,101241.31
2022-10-05T04:22:36.275Z,101236.53
2022-10-05T04:25:56.772Z,101246.13
2022-10-05T04:29:00.227Z,101245.38
2022-10-05T04:31:47.586Z,101247.78
2022-10-05T04:34:51.908Z,101248.63
2022-10-05T04:37:41.113Z,101251.03
2022-10-05T04:40:19.544Z,101257.03
2022-10-05T04:43:07.260Z,101254.69
2022-10-05T04:45:57.939Z,101248.72
2022-10-05T04:48:48.778Z,101254.31
2022-10-05T04:51:37.279Z,101257.88
2022-10-05T04:54:26.495Z,101251.13
2022-10-05T04:57:14.449Z,101251.56
2022-10-05T05:00:49.969Z,101250.00
2022-10-05T05:03:56.517Z,101248.81
2022-10-05T05:07:07.385Z,101250.81
2022-10-05T05:09:55.040Z,101251.22
2022-10-05T05:12:27.205Z,101249.22
2022-10-05T05:15:08.456Z,101250.44
2022-10-05T05:18:02.043Z,101255.22
2022-10-05T05:20:49.429Z,101263.22
2022-10-05T05:23:32.724Z,101257.66
2022-10-05T05:26:20.208Z,101252.06
2022-10-05T05:28:56.572Z,101254.88
2022-10-05T05:31:44.249Z,101253.69
2022-10-05T05:34:54.719Z,101262.47
2022-10-05T05:37:27.910Z,101272.81
2022-10-05T05:40:08.332Z,101274.41
2022-10-05T05:43:01.611Z,101277.59
2022-10-05T05:45:47.913Z,101279.22
2022-10-05T05:48:25.484Z,101271.25
2022-10-05T05:51:09.270Z,101275.22
2022-10-05T05:53:58.898Z,101271.25
2022-10-05T05:56:35.712Z,101268.84
2022-10-05T05:59:16.948Z,101260.88
2022-10-05T06:01:59.538Z,101263.66
2022-10-05T06:04:41.732Z,101263.25
2022-10-05T06:07:17.668Z,101271.22
2022-10-05T06:10:37.410Z,101274.44
2022-10-05T06:13:27.046Z,101276.41
2022-10-05T06:16:08.481Z,101276.00
2022-10-05T06:18:42.986Z,101274.44
2022-10-05T06:21:50.471Z,101291.16
2022-10-05T06:24:27.750Z,101285.59
2022-10-05T06:27:08.845Z,101279.22
2022-10-05T06:29:59.506Z,101286.38
2022-10-05T06:32:44.706Z,101282.41
2022-10-05T06:35:32.151Z,101283.59
2022-10-05T06:38:35.949Z,101286.38
2022-10-05T06:41:41.535Z,101280.81
2022-10-05T06:44:17.666Z,101283.97
2022-10-05T06:47:24.341Z,101287.97
2022-10-05T06:50:43.777Z,101274.44
2022-10-05T06:54:05.442Z,101272.03
2022-10-05T06:56:41.971Z,101268.81
2022-10-05T06:59:41.469Z,101272.03
2022-10-05T07:02:32.383Z,101271.59
2022-10-05T07:05:28.275Z,101273.59
2022-10-05T07:08:12.808Z,101277.63
2022-10-05T07:11:04.562Z,101285.94
2022-10-05T07:14:12.030Z,101296.75
2022-10-05T07:17:07.165Z,101282.38
2022-10-05T07:20:05.003Z,101289.50
2022-10-05T07:22:59.545Z,101293.13
2022-10-05T07:25:53.695Z,101302.31
2022-10-05T07:28:38.044Z,101296.72
2022-10-05T07:31:13.671Z,101304.69
2022-10-05T07:34:24.802Z,101304.69
2022-10-05T07:37:19.510Z,101302.31
2022-10-05T07:40:12.853Z,101301.53
2022-10-05T07:43:00.789Z,101306.34
2022-10-05T07:45:41.368Z,101307.13
2022-10-05T07:48:22.863Z,101303.94
2022-10-05T07:50:59.837Z,101312.69
2022-10-05T07:53:47.693Z,101311.03
2022-10-05T07:56:37.977Z,101318.22
2022-10-05T07:59:37.624Z,101322.69
2022-10-05T08:02:31.042Z,101321.47
2022-10-05T08:05:10.511Z,101318.31
2022-10-05T08:07:40.647Z,101327.84
2022-10-05T08:10:26.072Z,101316.69
2022-10-05T08:13:02.964Z,101325.47
2022-10-05T08:15:44.056Z,101323.00
2022-10-05T08:18:16.315Z,101319.06
2022-10-05T08:20:57.905Z,101321.44
2022-10-05T08:23:39.573Z,101329.47
2022-10-05T08:26:50.665Z,101323.84
2022-10-05T08:29:53.566Z,101315.09
2022-10-05T08:33:04.290Z,101323.88
2022-10-05T08:35:39.618Z,101326.25
2022-10-05T08:38:19.384Z,101332.63
2022-10-05T08:40:57.984Z,101326.63
2022-10-05T08:43:42.036Z,101334.63
2022-10-05T08:46:22.666Z,101338.22
2022-10-05T08:49:35.372Z,101335.84
2022-10-05T08:52:29.884Z,101335.81
2022-10-05T08:55:16.146Z,101337.03
2022-10-05T08:58:04.237Z,101331.88
2022-10-05T09:01:09.967Z,101333.03
2022-10-05T09:04:16.454Z,101344.97
2022-10-05T09:07:16.474Z,101342.97
2022-10-05T09:09:51.493Z,101348.56
2022-10-05T09:12:57.795Z,101354.53
2022-10-05T09:15:36.467Z,101347.81
2022-10-05T09:18:38.454Z,101349.81
2022-10-05T09:21:35.419Z,101347.78
2022-10-05T09:24:37.059Z,101333.41
2022-10-05T09:27:16.602Z,101339.06
2022-10-05T09:30:19.372Z,101341.44
2022-10-05T09:33:10.519Z,101333.44
2022-10-05T09:36:07.943Z,101327.88
2022-10-05T09:38:55.699Z,101336.22
2022-10-05T09:41:43.442Z,101343.78
2022-10-05T09:44:28.391Z,101345.84
2022-10-05T09:46:57.898Z,101339.03
2022-10-05T09:50:14.953Z,101352.59
2022-10-05T09:52:59.130Z,101351.03
2022-10-05T09:55:40.079Z,101347.81
2022-10-05T09:58:46.931Z,101342.25
2022-10-05T10:01:37.359Z,101356.97
2022-10-05T10:04:38.229Z,101358.16
2022-10-05T10:07:21.711Z,101363.72
2022-10-05T10:10:05.891Z,101363.72
2022-10-05T10:13:03.491Z,101376.53
2022-10-05T10:15:58.609Z,101382.91
2022-10-05T10:18:36.076Z,101382.13
2022-10-05T10:21:47.284Z,101377.34
2022-10-05T10:24:37.828Z,101377.34
2022-10-05T10:27:28.456Z,101369.38
2022-10-05T10:30:19.851Z,101372.94
2022-10-05T10:33:27.050Z,101374.16
2022-10-05T10:36:07.000Z,101380.94
2022-10-05T10:38:59.362Z,101380.56
2022-10-05T10:42:05.420Z,101378.09
2022-10-05T10:44:55.165Z,101384.50
2022-10-05T10:47:48.166Z,101380.50
2022-10-05T10:50:49.669Z,101380.09
2022-10-05T10:53:33.164Z,101376.50
2022-10-05T10:56:23.189Z,101374.13
2022-10-05T10:59:37.675Z,101378.09
2022-10-05T11:02:41.827Z,101381.28
2022-10-05T11:05:45.118Z,101374.09
2022-10-05T11:08:59.379Z,101374.91
2022-10-05T11:11:37.366Z,101377.31
2022-10-05T11:14:29.705Z,101376.50
2022-10-05T11:17:01.939Z,101368.50
2022-10-05T11:19:46.323Z,101374.09
2022-10-05T11:22:44.191Z,101372.53
2022-10-05T11:25:55.725Z,101378.09
2022-10-05T11:28:46.460Z,101370.53
2022-10-05T11:31:52.408Z,101371.31
2022-10-05T11:34:28.641Z,101381.28
2022-10-05T11:37:16.783Z,101374.88
2022-10-05T11:39:54.231Z,101378.88
2022-10-05T11:42:28.844Z,101369.72
2022-10-05T11:45:17.006Z,101374.91
2022-10-05T11:48:16.996Z,101371.69
2022-10-05T11:50:57.056Z,101369.31
2022-10-05T11:53:33.153Z,101364.59
2022-10-05T11:56:05.523Z,101374.16
2022-10-05T11:58:48.671Z,101379.72
2022-10-05T12:01:58.144Z,101378.91
2022-10-05T12:05:02.966Z,101382.47
2022-10-05T12:07:50.580Z,101374.91
2022-10-05T12:10:33.605Z,101377.28
2022-10-05T12:13:05.894Z,101373.31
2022-10-05T12:15:51.065Z,101369.31
2022-10-05T12:18:32.521Z,101362.91
2022-10-05T12:21:25.970Z,101368.50
2022-10-05T12:23:58.796Z,101368.50
2022-10-05T12:26:37.882Z,101362.97
2022-10-05T12:29:15.494Z,101368.50
2022-10-05T12:32:04.662Z,101368.50
2022-10-05T12:34:36.933Z,101371.69
2022-10-05T12:37:37.686Z,101366.91
2022-10-05T12:40:48.874Z,101366.88
2022-10-05T12:43:55.079Z,101362.50
2022-10-05T12:46:35.979Z,101359.75
2022-10-05T12:49:23.870Z,101364.53
2022-10-05T12:52:00.604Z,101358.09
2022-10-05T12:54:45.060Z,101373.28
2022-10-05T12:57:35.578Z,101374.91
2022-10-05T13:00:07.777Z,101368.88
2022-10-05T13:02:43.400Z,101374.03
2022-10-05T13:05:12.469Z,101374.91
2022-10-05T13:08:03.755Z,101370.50
2022-10-05T13:11:01.839Z,101375.38
2022-10-05T13:13:53.967Z,101394.03
2022-10-05T13:16:34.977Z,101399.19
2022-10-05T13:19:25.106Z,101399.56
2022-10-05T13:22:24.925Z,101390.88
2022-10-05T13:25:15.896Z,101403.63
2022-10-05T13:28:03.475Z,101403.59
2022-10-05T13:30:32.419Z,101408.38
2022-10-05T13:33:09.010Z,101403.63
2022-10-05T13:35:46.811Z,101402.03
2022-10-05T13:38:28.092Z,101409.22
2022-10-05T13:41:12.698Z,101412.06
2022-10-05T13:43:44.881Z,101418.75
2022-10-05T13:46:17.211Z,101411.16
2022-10-05T13:49:23.205Z,101411.19
2022-10-05T13:52:16.574Z,101408.03
2022-10-05T13:55:23.334Z,101415.66
2022-10-05T13:58:27.996Z,101420.41
2022-10-05T14:01:01.879Z,101422.75
2022-10-05T14:03:37.063Z,101426.34
2022-10-05T14:06:30.822Z,101420.34
2022-10-05T14:09:00.884Z,101414.00
2022-10-05T14:11:36.367Z,101419.56
2022-10-05T14:14:17.488Z,101418.69
2022-10-05T14:16:58.433Z,101416.75
2022-10-05T14:19:33.007Z,101403.97
2022-10-05T14:22:04.758Z,101409.16
2022-10-05T14:24:44.252Z,101406.78
2022-10-05T14:27:49.522Z,101409.59
2022-10-05T14:30:25.210Z,101407.16
2022-10-05T14:33:20.015Z,101398.81
2022-10-05T14:36:47.072Z,101400.38
2022-10-05T14:39:32.226Z,101409.16
2022-10-05T14:42:14.893Z,101410.72
2022-10-05T14:45:14.015Z,101394.78
2022-10-05T14:48:13.148Z,101398.81
2022-10-05T14:51:00.159Z,101405.94
2022-10-05T14:53:56.737Z,101407.50
2022-10-05T14:56:41.453Z,101408.28
2022-10-05T14:59:23.151Z,101407.50
2022-10-05T15:02:25.179Z,101401.13
2022-10-05T15:05:10.298Z,101402.00
2022-10-05T15:07:52.055Z,101410.81
2022-10-05T15:10:44.220Z,101403.19
2022-10-05T15:13:29.908Z,101415.59
2022-10-05T15:16:12.247Z,101414.78
2022-10-05T15:18:45.390Z,101427.56
2022-10-05T15:21:36.168Z,101429.56
2022-10-05T15:24:11.573Z,101434.00
2022-10-05T15:26:53.997Z,101441.97
2022-10-05T15:29:52.206Z,101455.47
2022-10-05T15:32:48.472Z,101461.91
2022-10-05T15:35:45.696Z,101471.50
2022-10-05T15:38:34.009Z,101486.66
2022-10-05T15:41:21.353Z,101490.25
2022-10-05T15:43:51.244Z,101489.84
2022-10-05T15:46:34.946Z,101505.84
2022-10-05T15:49:09.245Z,101509.72
2022-10-05T15:51:50.984Z,101514.50
2022-10-05T15:54:42.634Z,101517.78
2022-10-05T15:57:39.027Z,101503.44
2022-10-05T16:00:14.922Z,101511.00
2022-10-05T16:03:10.718Z,101507.41
2022-10-05T16:06:08.513Z,101520.16
2022-10-05T16:09:12.490Z,101526.56
2022-10-05T16:12:08.019Z,101529.75
2022-10-05T16:14:49.066Z,101530.56
2022-10-05T16:17:42.151Z,101532.19
2022-10-05T16:20:52.332Z,101536.97
2022-10-05T16:24:01.310Z,101542.13
2022-10-05T16:26:54.481Z,101544.81
2022-10-05T16:29:48.293Z,101546.50
2022-10-05T16:32:23.341Z,101564.00
2022-10-05T16:35:47.731Z,101553.59
2022-10-05T16:38:44.389Z,101555.28
2022-10-05T16:41:51.215Z,101561.56
2022-10-05T16:44:45.130Z,101561.94
2022-10-05T16:47:59.864Z,101559.94
2022-10-05T16:50:38.470Z,101556.31
2022-10-05T16:54:00.095Z,101560.78
2022-10-05T16:56:51.965Z,101572.00
2022-10-05T16:59:46.366Z,101582.47
2022-10-05T17:02:29.208Z,101594.47
2022-10-05T17:05:16.379Z,101594.03
2022-10-05T17:08:16.283Z,101602.81
2022-10-05T17:11:25.745Z,101610.44
2022-10-05T17:14:14.870Z,101602.44
2022-10-05T17:25:19.268Z,101593.44
2022-10-05T17:28:37.368Z,101585.66
2022-10-05T17:32:22.962Z,101592.84
2022-10-05T17:35:01.687Z,101597.66
2022-10-05T17:37:33.135Z,101605.66
2022-10-05T17:40:43.192Z,101605.66
2022-10-05T17:43:18.568Z,101598.44
2022-10-05T17:45:47.796Z,101596.81
2022-10-05T17:48:36.729Z,101599.84
2022-10-05T17:51:57.501Z,101583.66
2022-10-05T17:55:11.991Z,101595.56
2022-10-05T17:57:42.759Z,101590.28
2022-10-05T18:00:26.700Z,101585.47
2022-10-05T18:02:58.691Z,101582.22
2022-10-05T18:05:32.881Z,101575.03
2022-10-05T18:12:18.868Z,101563.13
2022-10-05T18:17:58.279Z,101570.50
2022-10-05T18:20:31.051Z,101579.28
2022-10-05T18:23:07.136Z,101585.28
2022-10-05T18:25:44.920Z,101583.25
2022-10-05T18:28:40.115Z,101589.69
2022-10-05T18:31:12.247Z,101597.69
2022-10-05T18:34:19.198Z,101602.88
2022-10-05T18:36:49.840Z,101592.91
2022-10-05T18:40:10.977Z,101597.69
2022-10-05T18:43:17.986Z,101596.06
2022-10-05T18:46:18.359Z,101592.47
2022-10-05T18:48:47.604Z,101594.91
2022-10-05T18:52:04.236Z,101593.72
2022-10-05T18:54:51.146Z,101591.72
2022-10-05T18:57:43.288Z,101593.69
2022-10-05T19:00:16.709Z,101590.09
2022-10-05T19:02:58.814Z,101584.91
2022-10-05T19:05:59.729Z,101589.72
2022-10-05T19:08:42.706Z,101588.91
2022-10-05T19:11:32.693Z,101594.50
2022-10-05T19:14:43.278Z,101589.69
2022-10-05T19:17:40.141Z,101564.16
2022-10-05T19:20:38.407Z,101581.72
2022-10-05T19:23:19.628Z,101584.13
2022-10-05T19:26:15.429Z,101588.13
2022-10-05T19:28:50.152Z,101579.75
2022-10-05T19:36:04.561Z,101564.97
2022-10-05T19:39:00.380Z,101573.75
2022-10-05T19:41:44.624Z,101578.53
2022-10-05T19:44:37.329Z,101572.91
2022-10-05T19:47:11.114Z,101569.34
2022-10-05T19:49:56.230Z,101575.72
2022-10-05T19:52:31.913Z,101564.13
2022-10-05T19:55:32.971Z,101583.31
2022-10-05T19:58:02.190Z,101582.94
2022-10-05T20:00:36.903Z,101574.53
2022-10-05T20:07:37.207Z,101573.72
2022-10-05T20:10:32.627Z,101585.72
2022-10-05T20:13:06.904Z,101576.94
2022-10-05T20:15:56.307Z,101562.56
2022-10-05T20:18:56.762Z,101566.53
2022-10-05T20:21:44.052Z,101576.13
2022-10-05T20:24:18.028Z,101579.75
2022-10-05T20:27:16.212Z,101580.13
2022-10-05T20:29:46.394Z,101568.16
2022-10-05T20:32:21.265Z,101574.56
2022-10-05T20:34:52.086Z,101573.75
2022-10-05T20:37:21.789Z,101572.94
2022-10-05T20:39:54.472Z,101571.31
2022-10-05T20:42:27.879Z,101571.34
2022-10-05T20:44:58.787Z,101573.75
2022-10-05T20:47:30.391Z,101571.34
2022-10-05T20:50:08.136Z,101578.16
2022-10-05T20:52:39.054Z,101568.13
2022-10-05T20:55:13.094Z,101568.53
2022-10-05T20:57:43.564Z,101565.75
2022-10-05T21:00:14.923Z,101560.94
2022-10-05T21:02:44.192Z,101552.16
2022-10-05T21:05:13.464Z,101550.16
2022-10-05T21:07:42.899Z,101549.00
2022-10-05T21:10:15.089Z,101546.56
2022-10-05T21:12:44.827Z,101552.19
2022-10-05T21:15:14.343Z,101548.19
2022-10-05T21:17:46.217Z,101553.34
2022-10-05T21:20:15.421Z,101545.38
2022-10-05T21:22:44.502Z,101539.38
2022-10-05T21:25:16.905Z,101539.38
2022-10-05T21:27:47.230Z,101529.78
2022-10-05T21:30:16.446Z,101541.38
2022-10-05T21:32:45.556Z,101540.94
2022-10-05T21:35:14.804Z,101546.53
2022-10-05T21:37:43.892Z,101548.09
2022-10-05T21:40:13.209Z,101548.13
2022-10-05T21:42:45.894Z,101543.31
2022-10-05T21:45:15.229Z,101538.53
2022-10-05T21:47:44.641Z,101532.56
2022-10-05T21:50:14.130Z,101530.56
2022-10-05T21:52:43.832Z,101534.97
2022-10-05T21:55:14.102Z,101537.72
2022-10-05T21:57:45.008Z,101542.53
2022-10-05T22:00:17.659Z,101549.72
2022-10-05T22:02:47.416Z,101540.16
2022-10-05T22:05:17.141Z,101540.94
2022-10-05T22:07:46.550Z,101532.97
2022-10-05T22:10:16.275Z,101542.94
2022-10-05T22:12:49.034Z,101546.53
2022-10-05T22:15:18.829Z,101537.75
2022-10-05T22:17:47.983Z,101531.41
2022-10-05T22:20:17.781Z,101529.00
2022-10-05T22:22:47.277Z,101513.03
2022-10-05T22:25:16.860Z,101509.84
2022-10-05T22:27:46.549Z,101511.03
2022-10-05T22:30:16.628Z,101501.88
2022-10-05T22:32:48.875Z,101504.25
2022-10-05T22:35:18.204Z,101513.00
2022-10-05T22:37:48.149Z,101508.19
2022-10-05T22:40:17.842Z,101506.59
2022-10-05T22:42:47.339Z,101510.56
2022-10-05T22:45:16.923Z,101519.34
2022-10-05T22:47:47.249Z,101526.13
2022-10-05T22:50:17.380Z,101532.13
2022-10-05T22:52:53.395Z,101526.50
2022-10-05T22:55:23.157Z,101520.47
2022-10-05T22:57:52.372Z,101524.06
2022-10-05T23:00:27.606Z,101519.28
2022-10-05T23:03:00.920Z,101518.56
2022-10-05T23:05:30.034Z,101507.38
2022-10-05T23:07:59.124Z,101504.13
2022-10-05T23:10:28.332Z,101504.03
2022-10-05T23:13:01.076Z,101510.44
2022-10-05T23:15:30.363Z,101511.19
2022-10-05T23:18:00.098Z,101517.16
2022-10-05T23:20:30.864Z,101511.91
2022-10-05T23:23:01.337Z,101509.53
2022-10-05T23:25:30.705Z,101511.19
2022-10-05T23:28:01.418Z,101520.78
2022-10-05T23:30:30.963Z,101514.34
2022-10-05T23:33:00.407Z,101524.66
2022-10-05T23:35:29.830Z,101531.09
2022-10-05T23:38:00.583Z,101519.91
2022-10-05T23:40:29.775Z,101521.19
2022-10-05T23:42:59.401Z,101523.13
2022-10-05T23:45:29.615Z,101521.50
2022-10-05T23:48:03.015Z,101519.88
2022-10-05T23:50:37.520Z,101521.72
2022-10-05T23:53:08.060Z,101512.06
2022-10-05T23:55:37.947Z,101504.19
2022-10-05T23:58:08.010Z,101511.09
